Time;durP1;ratioP1;P1;durP2;ratioP2;P2;SDS_P1;SDS_P2;PMS_P1;PMS_P2;Temp;Humidity;BMP_temperature;BMP_pressure;BME280_temperature;BME280_humidity;BME280_pressure;Samples;Min_cycle;Max_cycle;Signal;HPM_P1;HPM_P2
2022/12/07 00:01:19;;;;;;;40.58;20.25;;;3.40;99.90;;;1.68;100.00;100532.75;5026154;28;20704;-75
2022/12/07 00:03:47;;;;;;;40.60;21.20;;;3.50;99.90;;;1.71;100.00;100522.47;5021116;28;20034;-75
2022/12/07 00:06:14;;;;;;;39.17;21.60;;;3.50;99.90;;;1.73;100.00;100519.63;5026414;28;20183;-75
2022/12/07 00:08:40;;;;;;;42.67;22.02;;;3.50;99.90;;;1.71;100.00;100508.19;5024935;28;20037;-75
2022/12/07 00:11:19;;;;;;;47.60;23.63;;;3.50;99.90;;;1.78;100.00;100514.63;5026040;28;20116;-76
2022/12/07 00:13:47;;;;;;;46.67;22.65;;;3.50;99.90;;;1.79;100.00;100512.78;5026116;28;20051;-77
2022/12/07 00:16:16;;;;;;;45.05;22.08;;;3.60;99.90;;;1.79;100.00;100510.91;5026102;28;20532;-77
2022/12/07 00:18:43;;;;;;;45.05;21.85;;;3.60;99.90;;;1.81;100.00;100500.00;5026080;28;20122;-77
2022/12/07 00:21:16;;;;;;;45.00;23.05;;;3.60;99.90;;;1.88;100.00;100502.91;5025878;28;20115;-77
2022/12/07 00:23:44;;;;;;;52.60;24.27;;;3.60;99.90;;;1.86;100.00;100503.91;5025640;28;20117;-77
2022/12/07 00:26:18;;;;;;;47.85;21.98;;;3.60;99.90;;;1.86;100.00;100494.97;5027100;28;20037;-77
2022/12/07 00:28:49;;;;;;;49.28;23.13;;;3.70;99.90;;;1.85;100.00;100499.50;5026215;28;20072;-77
2022/12/07 00:31:17;;;;;;;44.15;21.60;;;3.70;99.90;;;1.86;100.00;100495.84;5025004;28;20038;-77
2022/12/07 00:33:44;;;;;;;48.13;24.05;;;3.70;99.90;;;1.87;100.00;100496.66;5024929;28;20034;-77
2022/12/07 00:36:14;;;;;;;47.60;22.52;;;3.70;99.90;;;1.86;100.00;100494.97;5026427;28;20033;-77
2022/12/07 00:38:40;;;;;;;44.47;21.70;;;3.70;99.90;;;1.89;100.00;100494.63;5026709;28;20030;-77
2022/12/07 00:41:15;;;;;;;45.40;22.77;;;3.70;99.90;;;1.89;100.00;100483.88;5027309;28;20052;-77
2022/12/07 00:43:43;;;;;;;48.97;23.63;;;3.70;99.90;;;1.88;100.00;100492.13;5019663;28;20052;-77
2022/12/07 00:46:10;;;;;;;46.40;22.25;;;3.70;99.90;;;1.85;100.00;100490.59;5024937;28;20435;-78
2022/12/07 00:48:37;;;;;;;45.90;22.70;;;3.70;99.90;;;1.87;100.00;100485.91;5026379;28;20037;-77
2022/12/07 00:51:04;;;;;;;46.33;21.85;;;3.70;99.90;;;1.85;100.00;100480.66;5024970;28;20029;-78
2022/12/07 00:53:33;;;;;;;48.80;22.38;;;3.70;99.90;;;1.85;100.00;100477.16;5024903;28;21041;-77
2022/12/07 00:56:06;;;;;;;47.92;21.92;;;3.70;99.90;;;1.86;100.00;100474.31;5025020;28;20123;-77
2022/12/07 00:58:32;;;;;;;47.15;23.50;;;3.70;99.90;;;1.84;100.00;100468.22;5025080;28;20117;-77
2022/12/07 01:01:02;;;;;;;46.42;22.50;;;3.60;99.90;;;1.89;100.00;100472.28;5024324;28;20413;-77
2022/12/07 01:03:28;;;;;;;49.13;23.42;;;3.70;99.90;;;1.77;100.00;100456.44;5024028;28;20052;-77
2022/12/07 01:05:55;;;;;;;47.22;22.95;;;3.60;99.90;;;1.85;100.00;100467.22;5026104;28;20033;-77
2022/12/07 01:08:23;;;;;;;45.05;22.20;;;3.60;99.90;;;1.91;100.00;100460.34;5025248;28;20033;-77
2022/12/07 01:10:49;;;;;;;47.55;23.23;;;3.70;99.90;;;1.90;100.00;100471.28;5024459;28;20060;-77
2022/12/07 01:13:16;;;;;;;46.22;22.70;;;3.70;99.90;;;1.81;100.00;100447.03;5023974;28;20670;-77
2022/12/07 01:15:43;;;;;;;49.33;22.85;;;3.70;99.90;;;1.91;100.00;100467.59;5025623;28;20033;-77
2022/12/07 01:18:10;;;;;;;47.22;22.70;;;3.70;99.90;;;1.89;100.00;100456.16;5024997;28;20029;-77
2022/12/07 01:20:36;;;;;;;44.05;22.58;;;3.70;99.90;;;1.91;100.00;100456.81;5026619;28;20099;-77
2022/12/07 01:23:06;;;;;;;49.97;22.58;;;3.70;99.90;;;1.94;100.00;100461.88;5024854;28;20037;-77
2022/12/07 01:25:32;;;;;;;49.03;22.98;;;3.70;99.90;;;1.94;100.00;100464.56;5025326;28;20112;-78
2022/12/07 01:27:57;;;;;;;46.58;21.67;;;3.70;99.90;;;1.96;100.00;100465.25;5020081;28;20526;-77
2022/12/07 01:30:23;;;;;;;46.47;22.55;;;3.70;99.90;;;1.96;100.00;100460.69;5029553;28;20391;-77
2022/12/07 01:32:49;;;;;;;43.63;22.50;;;3.70;99.90;;;1.99;100.00;100463.06;5029706;28;20103;-77
2022/12/07 01:35:15;;;;;;;49.38;22.98;;;3.80;99.90;;;2.00;100.00;100462.06;5029327;28;20056;-78
2022/12/07 01:37:41;;;;;;;49.88;23.90;;;3.80;99.90;;;2.02;100.00;100453.81;5030247;28;20099;-77
2022/12/07 01:40:10;;;;;;;44.85;23.45;;;3.80;99.90;;;2.08;100.00;100453.13;5029397;28;20034;-77
2022/12/07 01:42:36;;;;;;;44.55;22.85;;;3.80;99.90;;;2.16;100.00;100455.00;5023502;28;20045;-78
2022/12/07 01:45:37;;;;;;;43.97;23.10;;;3.90;99.90;;;2.24;100.00;100456.88;5028952;28;20140;-78
2022/12/07 01:48:06;;;;;;;44.63;23.13;;;4.00;99.90;;;2.27;100.00;100451.16;5027007;28;20111;-78
2022/12/07 01:50:33;;;;;;;48.45;23.63;;;4.00;99.90;;;2.37;100.00;100446.44;5028701;28;20042;-76
2022/12/07 01:53:03;;;;;;;44.15;22.88;;;4.10;99.90;;;2.41;100.00;100446.94;5028344;28;20037;-77
2022/12/07 01:55:30;;;;;;;44.47;23.15;;;4.20;99.90;;;2.42;100.00;100441.41;5027493;28;20056;-76
2022/12/07 01:57:56;;;;;;;46.60;23.73;;;4.20;99.90;;;2.49;100.00;100440.72;5028238;28;20036;-77
2022/12/07 02:00:22;;;;;;;45.78;23.73;;;4.20;99.90;;;2.50;100.00;100440.53;5029386;28;20025;-77
2022/12/07 02:03:00;;;;;;;49.47;24.55;;;4.30;99.90;;;2.43;100.00;100424.25;5027434;28;20369;-76
2022/12/07 02:05:27;;;;;;;48.53;23.67;;;4.30;99.90;;;2.54;100.00;100432.97;5025224;28;20499;-76
2022/12/07 02:07:56;;;;;;;45.60;22.92;;;4.30;99.90;;;2.52;100.00;100422.38;5028827;28;20601;-77
2022/12/07 02:10:29;;;;;;;41.40;21.73;;;4.30;99.90;;;2.46;100.00;100417.66;5027088;28;20045;-77
2022/12/07 02:13:27;;;;;;;43.55;21.52;;;4.20;99.90;;;2.38;100.00;100425.75;5029290;28;20369;-76
2022/12/07 02:16:22;;;;;;;38.33;20.65;;;4.20;99.90;;;2.34;100.00;100430.63;5029288;28;20499;-77
2022/12/07 02:19:04;;;;;;;36.53;20.08;;;4.10;99.90;;;2.30;100.00;100430.13;5029568;28;20437;-75
2022/12/07 02:21:57;;;;;;;43.90;21.85;;;4.10;99.90;;;2.28;100.00;100423.22;5023969;28;20109;-77
2022/12/07 02:24:57;;;;;;;41.15;20.20;;;4.10;99.90;;;2.30;100.00;100422.06;5028177;28;20749;-76
2022/12/07 02:27:43;;;;;;;;;;;4.10;99.90;;;2.27;100.00;100427.78;5024590;28;20033;-77
2022/12/07 02:30:14;;;;;;;37.35;19.88;;;4.00;99.90;;;2.24;100.00;100416.50;5028294;28;19917;-76
2022/12/07 02:33:05;;;;;;;39.97;20.05;;;4.00;99.90;;;2.18;100.00;100418.00;5028471;28;20079;-76
2022/12/07 02:35:40;;;;;;;40.30;20.65;;;4.00;99.90;;;2.08;100.00;100410.06;5026266;28;20048;-76
2022/12/07 02:38:34;;;;;;;38.30;19.58;;;3.90;99.90;;;2.06;100.00;100408.56;5028900;28;20069;-75
2022/12/07 02:41:26;;;;;;;40.83;20.35;;;3.80;99.90;;;2.06;100.00;100411.28;5026688;28;20049;-76
2022/12/07 02:44:12;;;;;;;36.15;19.95;;;3.80;99.90;;;2.05;100.00;100414.97;5028361;28;20084;-77
2022/12/07 02:46:49;;;;;;;38.55;19.90;;;3.80;99.90;;;1.99;100.00;100413.78;5027915;28;20036;-76
2022/12/07 02:49:16;;;;;;;38.10;19.90;;;3.70;99.90;;;1.94;100.00;100403.50;5022664;28;20037;-76
2022/12/07 02:51:45;;;;;;;40.83;20.50;;;3.70;99.90;;;1.96;100.00;100414.94;5027068;28;20025;-76
2022/12/07 02:54:18;;;;;;;38.30;20.08;;;3.70;99.90;;;1.89;100.00;100416.63;5028165;28;20033;-75
2022/12/07 02:56:44;;;;;;;38.08;19.98;;;3.60;99.90;;;1.86;100.00;100409.75;5028207;28;20073;-76
2022/12/07 02:59:47;;;;;;;39.70;19.10;;;3.60;99.90;;;1.77;100.00;100408.00;5028269;28;20088;-77
2022/12/07 03:02:43;;;;;;;34.45;19.42;;;3.60;99.90;;;1.73;100.00;100398.59;5026378;28;20036;-76
2022/12/07 03:05:48;;;;;;;39.33;19.95;;;3.50;99.90;;;1.83;100.00;100410.03;5025734;28;20465;-76
2022/12/07 03:09:04;;;;;;;35.30;19.05;;;3.60;99.90;;;1.86;100.00;100400.81;5022576;28;20128;-77
2022/12/07 03:12:00;;;;;;;35.88;18.70;;;3.60;99.90;;;2.04;100.00;100407.91;5012989;28;20042;-76
2022/12/07 03:14:36;;;;;;;41.40;19.55;;;3.70;99.90;;;2.09;100.00;100405.56;5027570;28;20039;-77
2022/12/07 03:17:20;;;;;;;35.97;18.55;;;3.80;99.90;;;2.24;100.00;100406.53;5025828;28;20057;-77
2022/12/07 03:19:51;;;;;;;36.53;19.40;;;4.00;99.90;;;2.26;100.00;100409.94;5027611;28;20059;-77
2022/12/07 03:22:19;;;;;;;39.17;20.90;;;4.00;99.90;;;2.29;100.00;100406.06;5025902;28;20035;-76
2022/12/07 03:24:54;;;;;;;39.33;20.38;;;4.00;99.90;;;2.28;100.00;100407.06;5026627;28;20029;-77
2022/12/07 03:27:25;;;;;;;33.15;17.95;;;4.00;99.90;;;2.26;100.00;100398.31;5026466;28;20132;-76
2022/12/07 03:30:06;;;;;;;34.65;17.13;;;4.00;99.90;;;2.28;100.00;100399.84;5025763;28;21009;-77
2022/12/07 03:32:50;;;;;;;32.20;17.42;;;4.10;99.90;;;2.31;100.00;100387.88;5027119;28;20025;-76
2022/12/07 03:35:22;;;;;;;33.58;17.02;;;4.10;99.90;;;2.31;100.00;100390.56;5022652;28;20033;-77
2022/12/07 03:38:12;;;;;;;29.77;17.10;;;4.10;99.90;;;2.26;100.00;100387.53;5025812;28;20051;-76
2022/12/07 03:40:50;;;;;;;31.42;16.23;;;4.00;99.90;;;2.25;100.00;100391.25;5026016;28;20107;-76
2022/12/07 03:43:19;;;;;;;32.07;14.83;;;4.00;99.90;;;2.30;100.00;100397.81;5025738;28;20084;-76
2022/12/07 03:46:09;;;;;;;25.55;14.32;;;4.00;99.90;;;2.25;100.00;100397.47;5021298;28;20034;-76
2022/12/07 03:48:40;;;;;;;28.23;15.05;;;4.00;99.90;;;2.26;100.00;100396.47;5023067;28;20045;-77
2022/12/07 03:51:28;;;;;;;29.48;14.63;;;4.00;99.90;;;2.33;100.00;100396.63;5027149;28;20108;-77
2022/12/07 03:54:19;;;;;;;27.90;14.27;;;4.10;99.90;;;2.37;100.00;100411.44;5023510;28;20025;-76
2022/12/07 03:56:47;;;;;;;26.05;13.95;;;4.10;99.90;;;2.36;100.00;100408.91;5023587;28;20262;-75
2022/12/07 03:59:16;;;;;;;25.95;13.13;;;4.10;99.90;;;2.32;100.00;100407.59;5025510;28;20068;-76
2022/12/07 04:01:54;;;;;;;27.10;13.95;;;4.10;99.90;;;2.33;100.00;100411.94;5025934;28;20057;-78
2022/12/07 04:04:21;;;;;;;25.50;14.18;;;4.10;99.90;;;2.30;100.00;100413.13;5023775;28;20124;-76
2022/12/07 04:06:47;;;;;;;26.13;13.55;;;4.10;99.90;;;2.32;100.00;100415.66;5036066;28;20464;-75
2022/12/07 04:09:14;;;;;;;28.02;13.60;;;4.10;99.90;;;2.27;100.00;100414.31;5024526;28;20120;-75
2022/12/07 04:11:40;;;;;;;23.75;13.13;;;4.10;99.90;;;2.22;100.00;100400.50;5024755;28;20061;-75
2022/12/07 04:14:18;;;;;;;23.70;12.50;;;4.00;99.90;;;2.19;100.00;100410.78;5026296;28;20061;-76
2022/12/07 04:17:04;;;;;;;23.97;13.07;;;4.00;99.90;;;2.23;100.00;100415.63;5026294;28;20021;-75
2022/12/07 04:19:33;;;;;;;23.38;13.35;;;4.00;99.90;;;2.14;100.00;100420.19;5026141;28;20049;-75
2022/12/07 04:22:02;;;;;;;25.90;12.50;;;3.90;99.90;;;2.08;100.00;100423.53;5025803;28;20068;-75
2022/12/07 04:24:28;;;;;;;26.25;12.80;;;3.90;99.90;;;2.04;100.00;100414.13;5026585;28;20033;-75
2022/12/07 04:26:54;;;;;;;24.88;13.05;;;3.80;99.90;;;2.01;100.00;100414.44;5025244;28;20087;-75
2022/12/07 04:29:21;;;;;;;25.83;14.15;;;3.80;99.90;;;2.00;100.00;100419.00;5025587;28;20033;-75
2022/12/07 04:31:48;;;;;;;26.75;12.95;;;3.80;99.90;;;1.98;100.00;100420.16;5026638;28;20030;-77
2022/12/07 04:34:15;;;;;;;28.25;12.35;;;3.70;99.90;;;1.93;100.00;100415.28;5026049;28;20029;-74
2022/12/07 04:36:42;;;;;;;24.38;13.07;;;3.70;99.90;;;1.90;100.00;100412.09;5022845;28;20394;-75
2022/12/07 04:39:29;;;;;;;27.25;14.25;;;3.70;99.90;;;1.94;100.00;100411.56;5026097;28;20053;-74
2022/12/07 04:41:55;;;;;;;26.77;13.88;;;3.70;99.90;;;1.96;100.00;100409.56;5023218;28;20046;-76
2022/12/07 04:44:25;;;;;;;26.75;12.85;;;3.70;99.90;;;1.93;100.00;100403.69;5025427;28;20040;-75
2022/12/07 04:46:51;;;;;;;30.52;12.93;;;3.70;99.90;;;1.92;100.00;100402.00;5025402;28;20060;-75
2022/12/07 04:49:21;;;;;;;25.35;13.05;;;3.70;99.90;;;1.92;100.00;100412.75;5025717;28;20031;-75
2022/12/07 04:51:47;;;;;;;26.52;12.93;;;3.70;99.90;;;1.91;100.00;100401.16;5026035;28;20025;-76
2022/12/07 04:54:15;;;;;;;27.33;13.70;;;3.70;99.90;;;1.92;100.00;100407.38;5025745;28;20032;-75
2022/12/07 04:56:41;;;;;;;25.58;11.82;;;3.70;99.90;;;1.93;100.00;100399.13;5020789;28;20650;-75
2022/12/07 04:59:08;;;;;;;28.90;12.73;;;3.70;99.90;;;1.98;100.00;100393.25;5025244;28;20034;-76
2022/12/07 05:01:34;;;;;;;23.10;11.55;;;3.80;99.90;;;1.94;100.00;100398.13;5021414;28;20033;-76
2022/12/07 05:04:00;;;;;;;25.00;12.70;;;3.70;99.90;;;1.94;100.00;100400.81;5025873;28;20040;-76
2022/12/07 05:06:26;;;;;;;26.00;12.60;;;3.70;99.90;;;1.98;100.00;100395.94;5025273;28;20041;-76
2022/12/07 05:08:52;;;;;;;22.25;11.30;;;3.70;99.90;;;1.92;100.00;100393.94;5026327;28;20040;-75
2022/12/07 05:14:12;;;;;;;27.45;11.90;;;3.70;99.90;;;1.93;100.00;100403.69;5025050;28;20400;-76
2022/12/07 05:16:39;;;;;;;24.48;11.13;;;3.70;99.90;;;1.92;100.00;100400.13;5024625;28;20033;-75
2022/12/07 05:19:06;;;;;;;26.63;11.43;;;3.70;99.90;;;1.92;100.00;100404.69;5025493;28;20397;-75
2022/12/07 05:21:32;;;;;;;24.63;12.20;;;3.70;99.90;;;1.90;100.00;100394.09;5024316;28;20779;-75
2022/12/07 05:23:58;;;;;;;27.23;11.75;;;3.70;99.90;;;1.89;100.00;100403.16;5025726;28;20033;-75
2022/12/07 05:26:24;;;;;;;25.77;11.05;;;3.70;99.90;;;1.86;100.00;100395.44;5018039;28;20095;-75
2022/12/07 05:28:55;;;;;;;22.25;10.52;;;3.60;99.90;;;1.88;100.00;100406.03;5026135;28;20087;-76
2022/12/07 05:31:23;;;;;;;23.75;11.32;;;3.60;99.90;;;1.83;100.00;100407.34;5025764;28;20080;-75
2022/12/07 05:33:49;;;;;;;27.33;13.30;;;3.60;99.90;;;1.83;100.00;100407.34;5025705;28;20028;-76
2022/12/07 05:36:14;;;;;;;25.80;11.18;;;3.60;99.90;;;1.77;100.00;100404.50;5022703;28;20744;-75
2022/12/07 05:38:41;;;;;;;27.77;11.82;;;3.60;99.90;;;1.72;100.00;100405.84;5023119;28;20439;-75
2022/12/07 05:42:11;;;;;;;24.27;11.20;;;3.50;99.90;;;1.70;100.00;100401.63;5025589;28;20107;-76
2022/12/07 05:43:55;;;;;;;24.52;10.15;;;3.50;99.90;;;1.70;100.00;100404.31;5022974;28;20025;-74
2022/12/07 05:46:21;;;;;;;24.10;10.55;;;3.50;99.90;;;1.61;100.00;100395.38;5024480;28;20037;-74
2022/12/07 05:48:47;;;;;;;25.13;10.10;;;3.40;99.90;;;1.61;100.00;100400.75;5025351;28;20036;-75
2022/12/07 05:51:12;;;;;;;23.58;9.88;;;3.40;99.90;;;1.50;100.00;100401.06;5025597;28;20666;-75
2022/12/07 05:53:38;;;;;;;21.35;9.27;;;3.30;99.90;;;1.46;100.00;100397.00;5025654;28;20065;-74
2022/12/07 05:56:04;;;;;;;21.52;9.57;;;3.30;99.90;;;1.40;100.00;100393.13;5025272;28;20396;-74
2022/12/07 06:01:15;;;;;;;21.02;10.10;;;3.20;99.90;;;1.50;100.00;100393.81;5025951;28;20026;-74
2022/12/07 06:03:40;;;;;;;23.40;10.43;;;3.30;99.90;;;1.52;100.00;100394.50;5020482;28;20059;-74
2022/12/07 06:06:06;;;;;;;28.48;10.55;;;3.30;99.90;;;1.53;100.00;100396.19;5024862;28;20030;-76
2022/12/07 06:08:32;;;;;;;22.35;9.88;;;3.30;99.90;;;1.59;100.00;100397.38;5025290;28;20594;-74
2022/12/07 06:13:42;;;;;;;23.98;10.50;;;3.40;99.90;;;1.56;100.00;100395.03;5025124;28;20045;-75
2022/12/07 06:16:07;;;;;;;20.63;8.80;;;3.40;99.90;;;1.67;100.00;100396.56;5027828;28;20037;-74
2022/12/07 06:18:33;;;;;;;24.50;9.38;;;3.50;99.90;;;1.69;100.00;100400.75;5027599;28;20029;-75
2022/12/07 06:20:59;;;;;;;19.05;9.05;;;3.50;99.90;;;1.75;100.00;100409.22;5028086;28;20029;-76
2022/12/07 06:23:25;;;;;;;19.77;8.38;;;3.60;99.90;;;1.76;100.00;100406.34;5029022;28;20059;-75
2022/12/07 06:25:50;;;;;;;20.13;8.65;;;3.60;99.90;;;1.74;100.00;100405.66;5029717;28;20389;-74
2022/12/07 06:28:16;;;;;;;19.77;8.55;;;3.60;99.90;;;1.73;100.00;100406.66;5029282;28;20086;-76
2022/12/07 06:30:42;;;;;;;17.23;7.85;;;3.60;99.90;;;1.76;100.00;100409.03;5027855;28;20095;-75
2022/12/07 06:33:07;;;;;;;17.23;8.02;;;3.50;99.90;;;1.79;100.00;100415.94;5027463;28;20037;-76
2022/12/07 06:35:33;;;;;;;17.88;8.20;;;3.60;99.90;;;1.77;100.00;100407.19;5028394;28;20131;-76
2022/12/07 06:37:59;;;;;;;20.08;8.55;;;3.60;99.90;;;1.76;100.00;100406.34;5027834;28;20049;-75
2022/12/07 06:40:25;;;;;;;16.13;8.05;;;3.60;99.90;;;1.77;100.00;100412.56;5028489;28;20433;-74
2022/12/07 06:42:50;;;;;;;17.63;7.50;;;3.50;99.90;;;1.75;100.00;100410.03;5026844;28;20553;-75
2022/12/07 06:45:16;;;;;;;18.13;7.35;;;3.50;99.90;;;1.74;100.00;100396.75;5027523;28;20037;-75
2022/12/07 06:47:42;;;;;;;16.88;7.40;;;3.50;99.90;;;1.69;100.00;100406.16;5025795;28;20037;-76
2022/12/07 06:50:08;;;;;;;16.02;6.75;;;3.60;99.90;;;1.65;100.00;100401.28;5026721;28;20087;-75
2022/12/07 06:52:34;;;;;;;18.23;6.68;;;3.50;99.90;;;1.61;100.00;100403.44;5028478;28;20117;-75
2022/12/07 06:55:00;;;;;;;15.15;6.72;;;3.40;99.90;;;1.63;100.00;100405.97;5028837;28;20194;-75
2022/12/07 06:57:26;;;;;;;20.38;7.18;;;3.40;99.90;;;1.62;100.00;100412.38;5025633;28;20030;-74
2022/12/07 06:59:52;;;;;;;15.75;6.57;;;3.40;99.90;;;1.63;100.00;100403.28;5027930;28;20064;-76
2022/12/07 07:02:17;;;;;;;16.65;6.25;;;3.40;99.90;;;1.65;100.00;100410.16;5028465;28;20048;-76
2022/12/07 07:04:43;;;;;;;14.82;5.88;;;3.40;99.90;;;1.64;100.00;100400.41;5028998;28;20037;-75
2022/12/07 07:07:09;;;;;;;15.23;6.38;;;3.40;99.90;;;1.57;100.00;100400.22;5026995;28;20033;-73
2022/12/07 07:09:35;;;;;;;12.20;5.22;;;3.40;99.90;;;1.53;100.00;100401.56;5029013;28;20056;-74
2022/12/07 07:12:01;;;;;;;14.98;7.03;;;3.40;99.90;;;1.54;100.00;100405.94;5027316;28;20117;-75
2022/12/07 07:14:27;;;;;;;16.63;5.85;;;3.30;99.90;;;1.53;100.00;100398.88;5029292;28;20029;-75
2022/12/07 07:16:52;;;;;;;20.00;6.68;;;3.30;99.90;;;1.52;100.00;100405.25;5027254;28;20029;-75
2022/12/07 07:19:18;;;;;;;13.77;5.53;;;3.40;99.90;;;1.57;100.00;100402.91;5025619;28;20041;-76
2022/12/07 07:21:44;;;;;;;12.88;5.80;;;3.40;99.90;;;1.59;100.00;100418.91;5030055;28;20039;-76
2022/12/07 07:24:10;;;;;;;13.00;5.78;;;3.40;99.90;;;1.59;100.00;100424.28;5024243;28;20029;-76
2022/12/07 07:26:36;;;;;;;14.27;6.03;;;3.40;99.90;;;1.53;100.00;100416.88;5028051;28;20030;-76
2022/12/07 07:29:02;;;;;;;14.07;5.72;;;3.30;99.90;;;1.53;100.00;100420.38;5027868;28;20041;-77
2022/12/07 07:31:28;;;;;;;17.38;5.68;;;3.30;99.90;;;1.52;100.00;100420.56;5027667;28;20035;-76
2022/12/07 07:33:53;;;;;;;11.20;5.38;;;3.30;99.90;;;1.53;100.00;100427.63;5024430;28;20034;-76
2022/12/07 07:36:19;;;;;;;14.48;5.40;;;3.30;99.90;;;1.44;100.00;100424.06;5027567;28;20047;-76
2022/12/07 07:38:45;;;;;;;12.95;5.47;;;3.30;99.90;;;1.48;100.00;100421.91;5027832;28;20636;-75
2022/12/07 07:41:10;;;;;;;10.73;5.30;;;3.30;99.90;;;1.47;100.00;100430.97;5028827;28;20045;-75
2022/12/07 07:43:36;;;;;;;13.55;5.45;;;3.30;99.90;;;1.49;100.00;100431.66;5021915;28;20048;-76
2022/12/07 07:46:02;;;;;;;12.38;4.93;;;3.30;99.90;;;1.47;100.00;100433.66;5027361;28;20044;-75
2022/12/07 07:48:28;;;;;;;13.52;4.90;;;3.30;99.90;;;1.48;100.00;100436.16;5027475;28;20045;-75
2022/12/07 07:50:53;;;;;;;10.82;4.80;;;3.30;99.90;;;1.50;100.00;100436.84;5026094;28;20030;-77
2022/12/07 07:53:19;;;;;;;12.15;4.45;;;3.30;99.90;;;1.50;100.00;100425.28;5027817;28;20036;-77
2022/12/07 07:55:53;;;;;;;10.43;4.35;;;3.30;99.90;;;1.52;100.00;100439.41;5026535;28;20036;-76
2022/12/07 07:58:19;;;;;;;11.80;4.88;;;3.30;99.90;;;1.51;100.00;100432.34;5027048;28;20102;-76
2022/12/07 08:00:45;;;;;;;8.80;3.85;;;3.30;99.90;;;1.51;100.00;100433.16;5025856;28;20025;-76
2022/12/07 08:03:10;;;;;;;8.98;3.85;;;3.30;99.90;;;1.51;100.00;100437.72;5025126;28;20083;-78
2022/12/07 08:05:37;;;;;;;10.15;4.32;;;3.30;99.90;;;1.57;100.00;100445.94;5026814;28;20056;-77
2022/12/07 08:08:04;;;;;;;10.13;4.00;;;3.30;99.90;;;1.56;100.00;100446.13;5026773;28;20124;-79
2022/12/07 08:10:31;;;;;;;12.65;4.47;;;3.40;99.90;;;1.62;100.00;100439.25;5022747;28;20318;-75
2022/12/07 08:13:15;;;;;;;9.63;4.13;;;3.40;99.90;;;1.61;100.00;100434.88;5027482;28;20128;-77
2022/12/07 08:15:44;;;;;;;11.25;4.15;;;3.40;99.90;;;1.57;100.00;100437.88;5027055;28;20095;-76
2022/12/07 08:18:12;;;;;;;8.57;3.45;;;3.40;99.90;;;1.65;100.00;100442.44;5025604;28;20044;-76
2022/12/07 08:20:39;;;;;;;9.63;3.60;;;3.50;99.90;;;1.60;100.00;100428.66;5022627;28;20029;-74
2022/12/07 08:23:07;;;;;;;12.50;3.27;;;3.50;99.90;;;1.73;100.00;100449.72;5019142;28;20033;-74
2022/12/07 08:25:34;;;;;;;8.05;3.30;;;3.50;99.90;;;1.79;100.00;100442.84;5021735;28;20314;-74
2022/12/07 08:28:00;;;;;;;6.70;2.80;;;3.60;99.90;;;1.80;100.00;100439.97;5023416;28;20414;-74
2022/12/07 08:30:27;;;;;;;9.20;2.50;;;3.60;99.90;;;1.84;100.00;100445.88;5025770;28;20382;-75
2022/12/07 08:32:53;;;;;;;9.15;2.70;;;3.70;99.90;;;1.88;100.00;100441.84;5026560;28;20071;-75
2022/12/07 08:35:19;;;;;;;9.02;2.72;;;3.70;99.90;;;1.92;100.00;100439.66;5026720;28;20409;-75
2022/12/07 08:37:45;;;;;;;9.57;2.58;;;3.70;99.90;;;1.91;100.00;100435.28;5025627;28;20374;-75
2022/12/07 08:40:15;;;;;;;8.45;2.40;;;3.80;99.90;;;1.93;100.00;100449.44;5025217;28;20041;-75
2022/12/07 08:42:49;;;;;;;7.72;2.55;;;3.80;99.90;;;2.03;100.00;100454.66;5025215;28;20037;-75
2022/12/07 08:45:17;;;;;;;9.85;2.38;;;3.80;99.90;;;2.02;100.00;100445.72;5025861;28;20037;-75
2022/12/07 08:47:58;;;;;;;6.53;2.17;;;3.80;99.90;;;2.09;100.00;100446.75;5024719;28;20295;-74
2022/12/07 08:50:24;;;;;;;7.13;2.67;;;3.90;99.90;;;2.09;100.00;100448.59;5024707;28;20064;-75
2022/12/07 08:52:57;;;;;;;9.65;2.63;;;3.90;99.90;;;2.09;100.00;100457.50;5024019;28;20036;-75
2022/12/07 08:55:25;;;;;;;6.20;2.20;;;3.90;99.90;;;2.14;100.00;100459.72;5025837;28;20120;-75
2022/12/07 08:57:51;;;;;;;6.57;1.98;;;4.00;99.90;;;2.11;100.00;100458.19;5025473;28;20510;-75
2022/12/07 09:00:17;;;;;;;7.50;2.28;;;4.00;99.90;;;2.11;100.00;100450.09;5024880;28;20038;-76
2022/12/07 09:02:45;;;;;;;9.80;2.17;;;4.00;99.90;;;2.11;100.00;100460.06;5023231;28;20091;-75
2022/12/07 09:05:14;;;;;;;5.95;2.15;;;4.00;99.90;;;2.07;100.00;100461.41;5025152;28;20061;-75
2022/12/07 09:07:47;;;;;;;6.85;2.28;;;3.90;99.90;;;2.07;100.00;100456.84;5026499;28;20041;-75
2022/12/07 09:10:13;;;;;;;6.68;2.22;;;3.90;99.90;;;2.07;100.00;100467.59;5021182;28;20257;-73
2022/12/07 09:12:39;;;;;;;4.32;2.03;;;3.90;99.90;;;2.09;100.00;100464.75;5023846;28;20396;-72
2022/12/07 09:15:05;;;;;;;6.03;2.00;;;3.90;99.90;;;2.02;100.00;100461.88;5025975;28;20030;-73
2022/12/07 09:17:35;;;;;;;9.40;2.75;;;3.90;99.90;;;2.07;100.00;100464.91;5032690;28;20141;-73
2022/12/07 09:20:03;;;;;;;6.63;2.20;;;3.90;99.90;;;2.07;100.00;100458.69;5021330;28;20037;-74
2022/12/07 09:22:30;;;;;;;4.43;1.80;;;3.90;99.90;;;2.09;100.00;100459.38;5023102;28;20404;-74
2022/12/07 09:24:57;;;;;;;6.32;1.80;;;3.90;99.90;;;2.01;100.00;100458.38;5025302;28;20037;-75
2022/12/07 09:27:23;;;;;;;5.50;2.00;;;3.90;99.90;;;2.13;100.00;100458.88;5024675;28;20048;-74
2022/12/07 09:29:49;;;;;;;5.82;1.90;;;3.90;99.90;;;2.16;100.00;100460.38;5025166;28;20108;-74
2022/12/07 09:32:15;;;;;;;6.85;2.00;;;4.00;99.90;;;2.23;100.00;100465.97;5026995;28;20556;-74
2022/12/07 09:34:40;;;;;;;7.75;2.50;;;4.00;99.90;;;2.29;100.00;100459.91;5026742;28;20495;-75
2022/12/07 09:37:06;;;;;;;4.70;1.90;;;4.10;99.90;;;2.27;100.00;100446.63;5025898;28;20036;-74
2022/12/07 09:39:32;;;;;;;7.35;2.30;;;4.10;99.90;;;2.34;100.00;100449.47;5025883;28;20029;-75
2022/12/07 09:42:02;;;;;;;8.90;1.85;;;4.20;99.90;;;2.29;100.00;100443.75;5024989;28;20088;-75
2022/12/07 09:44:28;;;;;;;6.20;1.73;;;4.10;99.90;;;2.32;100.00;100447.97;5023363;28;20215;-73
2022/12/07 09:46:56;;;;;;;3.95;1.77;;;4.20;99.90;;;2.38;100.00;100453.50;5024385;28;20029;-75
2022/12/07 09:49:26;;;;;;;4.25;1.60;;;4.20;99.90;;;2.49;100.00;100448.81;5020058;28;20034;-74
2022/12/07 09:52:07;;;;;;;4.57;1.45;;;4.40;99.90;;;2.58;100.00;100458.56;5023694;28;20091;-75
2022/12/07 09:54:41;;;;;;;4.97;1.42;;;4.40;99.90;;;2.82;100.00;100465.78;5027466;28;20543;-74
2022/12/07 09:57:20;;;;;;;7.35;1.73;;;4.60;99.90;;;3.11;100.00;100459.00;5027818;28;20541;-74
2022/12/07 09:59:46;;;;;;;5.47;1.80;;;4.90;99.90;;;3.23;100.00;100451.38;5029521;28;20042;-73
2022/12/07 10:03:03;;;;;;;5.78;1.58;;;5.10;99.90;;;3.40;100.00;100457.56;5028628;28;20029;-75
2022/12/07 10:05:42;;;;;;;7.03;1.45;;;5.20;99.90;;;3.48;100.00;100443.22;5023802;28;20118;-74
2022/12/07 10:08:13;;;;;;;6.40;1.98;;;5.30;99.90;;;3.49;100.00;100449.44;5024243;28;20109;-75
2022/12/07 10:10:39;;;;;;;4.75;1.40;;;5.40;99.90;;;3.38;100.00;100451.50;5023364;28;20443;-74
2022/12/07 10:13:12;;;;;;;4.53;1.08;;;5.30;99.90;;;3.31;100.00;100447.81;5022236;28;20030;-74
2022/12/07 10:15:52;;;;;;;5.82;1.20;;;5.20;99.90;;;3.20;100.00;100445.50;5024991;28;20076;-75
2022/12/07 10:18:44;;;;;;;4.22;1.30;;;5.20;99.90;;;3.36;100.00;100449.97;5029475;28;20484;-75
2022/12/07 10:21:23;;;;;;;4.40;1.20;;;5.20;99.90;;;3.47;100.00;100448.75;5025233;28;20037;-74
2022/12/07 10:24:10;;;;;;;5.85;1.13;;;5.30;99.90;;;3.64;100.00;100442.28;5026715;28;20095;-74
2022/12/07 10:26:56;;;;;;;4.35;1.10;;;5.40;99.90;;;3.45;100.00;100441.69;5025334;28;20045;-74
2022/12/07 10:29:38;;;;;;;3.03;1.10;;;5.50;99.90;;;3.28;100.00;100438.22;5029423;28;20044;-74
2022/12/07 10:32:33;;;;;;;6.40;1.95;;;5.20;99.90;;;3.56;100.00;100453.97;5026332;28;20044;-74
2022/12/07 10:35:25;;;;;;;3.55;0.70;;;5.40;99.90;;;3.29;100.00;100445.28;5023235;28;20029;-75